FW5903 Weather Reports


Display with metric or nautical units.
time (UTC)temp
F
wind
direction
speed
MPH
gust
MPH
rain 1hr
in
rain 24hr
in
rain mn
in
humidity
%
barometer
mb
20240722042352 69 188 0.0 0.0 0.00 0.42 0.42 92 1019.8
20240722041848 69 188 0.0 0.0 0.00 0.42 0.42 92 1019.6
20240722041347 69 189 0.0 0.0 0.00 0.42 0.42 92 1019.6
20240722040846 69 180 0.0 0.0 0.00 0.42 0.42 91 1019.7
20240722040346 69 178 0.0 0.0 0.00 0.42 0.42 91 1019.5
20240722035846 69 179 0.0 0.0 0.00 0.42 0.42 90 1019.6
20240722035345 70 177 0.0 1.0 0.00 0.42 0.42 90 1019.7
20240722034843 70 173 1.0 1.0 0.00 0.42 0.42 89 1019.5
20240722034341 70 189 0.0 0.0 0.00 0.42 0.42 88 1019.5
20240722033840 71 151 0.0 0.0 0.00 0.42 0.42 88 1019.6
20240722033337 71 158 0.0 0.0 0.00 0.42 0.42 87 1019.5
20240722032837 71 185 0.0 0.0 0.00 0.42 0.42 87 1019.5
20240722032336 72 220 1.0 1.0 0.00 0.42 0.42 86 1020.0
20240722031835 72 340 1.0 1.0 0.00 0.42 0.42 86 1019.8
20240722031333 72 282 1.0 1.0 0.00 0.42 0.42 87 1019.4
20240722030831 72 233 0.0 0.0 0.00 0.42 0.42 87 1019.3
20240722030328 72 185 0.0 0.0 0.00 0.42 0.42 87 1019.7
20240722025828 72 162 0.0 0.0 0.00 0.42 0.42 87 1019.8
20240722025326 72 182 1.0 1.0 0.00 0.42 0.42 86 1019.7
20240722024825 72 201 0.0 0.0 0.00 0.42 0.42 86 1020.0
20240722024323 72 188 0.0 0.0 0.00 0.42 0.42 85 1019.9
20240722023822 72 190 0.0 1.0 0.00 0.42 0.42 85 1019.5
20240722023318 73 151 0.0 0.0 0.00 0.42 0.42 85 1019.4
20240722022818 73 192 0.0 0.0 0.00 0.42 0.42 85 1019.5
20240722022317 73 185 1.0 1.0 0.00 0.42 0.42 84 1019.6
20240722021817 73 218 0.0 1.0 0.00 0.42 0.42 84 1019.4
20240722021313 73 189 0.0 1.0 0.00 0.42 0.42 84 1019.6
20240722020810 73 170 1.0 1.0 0.00 0.42 0.42 84 1019.6
20240722020309 73 217 0.0 1.0 0.00 0.42 0.42 84 1019.3
20240722015808 73 183 1.0 1.0 0.00 0.42 0.42 84 1019.4
20240722015307 74 116 1.0 1.0 0.00 0.42 0.42 84 1019.4
20240722014806 74 191 1.0 1.0 0.00 0.42 0.42 83 1019.4
20240722014302 74 222 0.0 0.0 0.00 0.42 0.42 83 1019.5
20240722013755 74 183 0.0 0.0 0.00 0.42 0.42 83 1019.5
20240722013253 75 179 0.0 1.0 0.00 0.42 0.42 82 1019.4
20240722012752 75 169 0.0 1.0 0.00 0.42 0.42 81 1019.5
20240722012251 75 222 0.0 1.0 0.00 0.42 0.42 80 1019.4
20240722011750 75 177 0.0 0.0 0.00 0.42 0.42 80 1019.2
20240722011249 76 179 0.0 0.0 0.00 0.42 0.42 78 1019.3
20240722010748 76 179 0.0 0.0 0.00 0.42 0.42 78 1019.4
20240722010246 76 177 0.0 1.0 0.00 0.42 0.42 77 1019.6
20240722005742 76 204 0.0 0.0 0.00 0.42 0.42 78 1019.5
20240722005242 76 209 0.0 1.0 0.00 0.42 0.42 77 1019.5
20240722004733 76 169 0.0 0.0 0.00 0.42 0.42 76 1019.6
20240722004232 76 225 1.0 2.0 0.00 0.42 0.42 77 1019.2
20240722003730 77 197 0.0 1.0 0.00 0.42 0.42 77 1019.3
20240722003229 78 195 0.0 0.0 0.00 0.42 0.42 75 1019.3
20240722002728 78 197 0.0 0.0 0.00 0.42 0.42 73 1019.2
20240722002226 78 184 0.0 0.0 0.00 0.42 0.42 73 1019.2
20240722001724 78 222 0.0 0.0 0.00 0.42 0.42 73 1019.1
20240722001222 78 202 0.0 0.0 0.00 0.42 0.42 73 1019.0
20240722000717 78 211 0.0 1.0 0.00 0.42 0.42 73 1018.9
20240722000218 78 213 0.0 0.0 0.00 0.42 0.42 72 1018.9
20240721235715 78 187 0.0 0.0 0.00 0.42 0.42 73 1018.9
20240721235214 79 216 0.0 0.0 0.00 0.42 0.42 73 1019.2
20240721234713 79 162 0.0 0.0 0.00 0.42 0.42 71 1019.1
20240721234213 79 194 0.0 0.0 0.00 0.42 0.42 72 1019.1
20240721233712 79 196 0.0 0.0 0.00 0.42 0.42 72 1019.0
20240721233210 79 195 0.0 0.0 0.00 0.42 0.42 74 1019.0
20240721232708 79 314 1.0 2.0 0.00 0.42 0.42 71 1019.0
20240721232206 80 232 1.0 1.0 0.00 0.42 0.42 72 1018.9
20240721231702 80 307 2.0 2.0 0.00 0.42 0.42 72 1018.7
20240721231200 80 247 2.0 2.0 0.00 0.42 0.42 72 1019.0
20240721230658 80 224 2.0 2.0 0.00 0.42 0.42 71 1019.1
20240721230156 80 326 2.0 2.0 0.00 0.42 0.42 71 1018.7
20240721225655 81 181 1.0 1.0 0.00 0.42 0.42 70 1019.3
20240721225153 81 265 0.0 0.0 0.00 0.42 0.42 71 1019.2
20240721224649 80 97 0.0 1.0 0.00 0.42 0.42 70 1019.4
20240721224147 81 181 2.0 2.0 0.00 0.42 0.42 70 1019.4
20240721223646 82 203 2.0 2.0 0.00 0.42 0.42 68 1019.4
20240721223145 81 190 0.0 0.0 0.00 0.42 0.42 70 1019.5
20240721222644 81 206 0.0 0.0 0.00 0.42 0.42 71 1019.6
20240721222142 80 183 0.0 0.0 0.00 0.42 0.42 70 1019.6
20240721221641 80 219 1.0 1.0 0.00 0.42 0.42 71 1019.6
20240721221140 80 206 0.0 0.0 0.00 0.42 0.42 73 1019.8
20240721220638 80 103 0.0 0.0 0.00 0.42 0.42 71 1019.5
20240721220138 81 161 1.0 2.0 0.00 0.42 0.42 72 1019.7
20240721215636 81 229 0.0 1.0 0.00 0.42 0.42 70 1019.8
20240721215134 81 187 3.0 3.0 0.00 0.42 0.42 71 1019.7
20240721214633 81 190 0.0 0.0 0.00 0.42 0.42 72 1019.7
20240721214133 81 202 0.0 0.0 0.00 0.42 0.42 72 1020.0
20240721213629 81 176 2.0 2.0 0.00 0.42 0.42 73 1019.9
20240721213129 81 240 1.0 2.0 0.00 0.42 0.42 72 1020.0
20240721212628 80 184 0.0 0.0 0.00 0.42 0.42 75 1020.2
20240721212125 82 158 2.0 2.0 0.00 0.42 0.42 71 1020.2
20240721211625 82 221 0.0 1.0 0.00 0.42 0.42 71 1020.3
20240721211123 82 221 0.0 0.0 0.00 0.42 0.42 70 1020.3
20240721210619 81 273 1.0 2.0 0.00 0.42 0.42 72 1020.3
20240721210117 81 205 0.0 1.0 0.00 0.42 0.42 75 1020.4
20240721205616 80 209 0.0 0.0 0.00 0.42 0.42 72 1020.4
20240721205112 80 241 1.0 2.0 0.00 0.42 0.42 73 1020.4
20240721204611 80 223 1.0 1.0 0.00 0.42 0.42 75 1020.6
20240721204109 80 235 2.0 2.0 0.00 0.42 0.42 72 1020.4
20240721203608 80 169 1.0 1.0 0.00 0.42 0.42 73 1020.5
20240721203107 80 220 0.0 0.0 0.00 0.42 0.42 73 1020.5
20240721202601 79 185 0.0 0.0 0.00 0.42 0.42 76 1020.5
20240721202058 79 188 1.0 1.0 0.00 0.42 0.42 74 1020.6
20240721201544 78 228 2.0 3.0 0.00 0.42 0.42 75 1020.7
20240721201043 78 264 2.0 2.0 0.00 0.42 0.42 74 1020.5
20240721200540 78 267 1.0 1.0 0.00 0.42 0.42 76 1020.7
20240721200039 77 265 1.0 1.0 0.00 0.42 0.42 75 1020.4
20240721195538 77 248 1.0 1.0 0.00 0.42 0.42 75 1020.6
20240721195033 78 16 2.0 2.0 0.00 0.42 0.42 77 1020.7
20240721194530 77 193 0.0 0.0 0.00 0.42 0.42 78 1020.7
20240721194029 77 285 1.0 2.0 0.00 0.42 0.42 77 1020.8
20240721193528 77 279 1.0 1.0 0.00 0.42 0.42 77 1021.0
20240721193026 77 260 2.0 2.0 0.00 0.42 0.42 78 1020.9
20240721192523 76 245 1.0 1.0 0.00 0.42 0.42 79 1020.8
20240721192022 76 207 1.0 1.0 0.00 0.42 0.42 80 1020.7
20240721191519 75 247 1.0 1.0 0.00 0.42 0.42 81 1021.1
20240721191018 74 228 2.0 3.0 0.00 0.42 0.42 82 1021.2
20240721190518 75 209 0.0 1.0 0.00 0.42 0.42 83 1021.1
20240721190016 74 188 1.0 2.0 0.00 0.42 0.42 83 1021.1
20240721185516 75 277 1.0 1.0 0.00 0.42 0.42 83 1021.2
20240721185014 74 265 2.0 2.0 0.00 0.42 0.42 82 1021.1
20240721184512 74 215 1.0 1.0 0.00 0.42 0.42 85 1021.1
20240721184011 73 178 0.0 1.0 0.00 0.42 0.42 85 1021.3
20240721183510 73 170 0.0 0.0 0.00 0.42 0.42 85 1020.9
20240721183011 73 264 1.0 1.0 0.00 0.42 0.42 85 1021.2
20240721182510 73 203 1.0 1.0 0.00 0.42 0.42 85 1021.2
20240721182009 73 276 1.0 2.0 0.00 0.42 0.42 87 1021.3
20240721181506 73 146 1.0 1.0 0.00 0.42 0.42 90 1021.4
20240721181004 71 208 0.0 1.0 0.00 0.42 0.42 94 1021.5
20240721180503 70 170 0.0 0.0 0.00 0.42 0.42 96 1021.4
20240721180000 69 125 0.0 0.0 0.00 0.42 0.42 97 1021.3
20240721175459 69 195 1.0 1.0 0.00 0.42 0.42 98 1021.4
20240721174957 69 181 0.0 0.0 0.00 0.42 0.42 99 1021.4
20240721174456 69 162 2.0 2.0 0.00 0.42 0.42 98 1021.4
20240721173955 69 224 0.0 0.0 0.00 0.42 0.42 99 1021.2
20240721173453 68 163 0.0 1.0 0.00 0.42 0.42 99 1021.4
20240721172953 68 149 0.0 0.0 0.00 0.42 0.42 99 1021.4
20240721172451 68 203 1.0 1.0 0.00 0.42 0.42 99 1021.6
20240721171950 68 142 0.0 1.0 0.00 0.42 0.42 99 1021.6
20240721171449 67 192 1.0 1.0 0.00 0.42 0.42 99 1022.0
20240721170948 67 175 0.0 1.0 0.00 0.42 0.42 99 1022.0
20240721170439 67 142 0.0 0.0 0.00 0.42 0.42 99 1022.0
20240721165939 67 168 1.0 1.0 0.00 0.42 0.42 99 1022.0
20240721165437 67 166 1.0 1.0 0.00 0.42 0.42 99 1021.9
20240721164938 67 175 1.0 1.0 0.00 0.42 0.42 99 1022.3
20240721164435 67 172 1.0 1.0 0.00 0.42 0.42 99 1022.2
20240721163933 66 169 1.0 2.0 0.00 0.42 0.42 99 1022.4
20240721163430 66 169 0.0 1.0 0.00 0.42 0.42 99 1022.2
20240721162930 66 189 1.0 2.0 0.00 0.42 0.42 99 1022.2
20240721162428 66 155 0.0 0.0 0.00 0.42 0.42 99 1022.2
20240721161927 67 162 0.0 1.0 0.00 0.42 0.42 99 1022.3
20240721161424 67 151 0.0 0.0 0.00 0.42 0.42 99 1022.1
20240721160923 67 123 0.0 0.0 0.00 0.42 0.42 99 1022.0
20240721160421 67 152 0.0 0.0 0.00 0.42 0.42 99 1021.9
20240721155920 67 167 0.0 0.0 0.00 0.42 0.42 99 1021.9
20240721155419 67 174 0.0 0.0 0.00 0.42 0.42 98 1021.8
20240721154918 66 86 0.0 0.0 0.00 0.42 0.42 98 1021.6
20240721154416 67 93 0.0 0.0 0.00 0.42 0.42 98 1021.7
20240721153916 67 126 0.0 0.0 0.00 0.42 0.42 98 1021.4
20240721153413 67 165 0.0 0.0 0.00 0.42 0.42 98 1021.4
20240721152912 66 172 0.0 0.0 0.00 0.42 0.42 98 1021.5
20240721152409 67 181 1.0 2.0 0.30 0.42 0.42 98 1021.3
20240721151908 67 144 0.0 0.0 0.61 0.42 0.42 98 1021.7
20240721151407 67 137 1.0 1.0 0.47 0.39 0.39 98 1021.8
20240721150906 67 66 3.0 3.0 0.23 0.32 0.32 97 1021.8
20240721150401 68 100 1.0 1.0 0.42 0.31 0.31 97 1021.6
20240721145858 68 158 0.0 0.0 0.30 0.29 0.29 97 1021.3
20240721145358 68 191 0.0 0.0 0.30 0.26 0.26 97 1021.3
20240721144855 68 225 1.0 1.0 1.37 0.24 0.24 96 1021.4
20240721144353 69 193 2.0 2.0 1.01 0.18 0.18 96 1021.5
20240721143850 69 170 0.0 1.0 0.07 0.02 0.02 95 1021.6
20240721143349 70 189 1.0 1.0 0.11 0.02 0.02 95 1021.6
20240721142848 70 60 1.0 1.0 0.04 0.00 0.00 95 1021.2
20240721142343 70 24 0.0 1.0 0.00 0.00 0.00 95 1021.4
20240721141843 70 144 0.0 0.0 0.00 0.00 0.00 95 1021.2
20240721141336 70 5 1.0 1.0 0.00 0.00 0.00 95 1021.4
20240721140821 70 171 0.0 0.0 0.00 0.00 0.00 94 1021.2
20240721140319 70 137 0.0 0.0 0.00 0.00 0.00 94 1021.4
20240721135818 70 317 0.0 1.0 0.00 0.00 0.00 94 1021.4
20240721135317 70 343 0.0 0.0 0.00 0.00 0.00 93 1021.3
20240721134816 71 50 2.0 2.0 0.00 0.00 0.00 93 1021.2
20240721134315 71 38 1.0 2.0 0.00 0.00 0.00 92 1021.0
20240721133813 71 59 2.0 2.0 0.00 0.00 0.00 92 1021.3
20240721133311 71 87 1.0 1.0 0.00 0.00 0.00 92 1021.1
20240721132808 71 15 0.0 0.0 0.00 0.00 0.00 91 1021.0
20240721132259 71 132 0.0 0.0 0.00 0.00 0.00 91 1021.1
20240721131758 71 3 0.0 0.0 0.00 0.00 0.00 92 1021.2
20240721131257 71 233 0.0 0.0 0.00 0.00 0.00 91 1020.8
20240721130755 71 201 0.0 0.0 0.00 0.00 0.00 92 1020.6
20240721130253 71 216 0.0 0.0 0.00 0.00 0.00 92 1020.5
20240721125750 71 185 0.0 0.0 0.00 0.00 0.00 93 1020.6
20240721125246 71 279 0.0 1.0 0.00 0.00 0.00 94 1020.8
20240721124746 71 129 0.0 0.0 0.00 0.00 0.00 95 1020.7
20240721124242 70 230 1.0 1.0 0.00 0.00 0.00 95 1020.9
20240721123741 70 122 0.0 0.0 0.00 0.00 0.00 96 1020.7
20240721123238 70 175 0.0 0.0 0.00 0.00 0.00 97 1020.2
20240721122737 70 140 0.0 0.0 0.00 0.00 0.00 98 1020.4
20240721122235 69 290 0.0 0.0 0.00 0.00 0.00 98 1020.4
20240721121734 69 292 0.0 0.0 0.00 0.00 0.00 98 1020.5
20240721121232 69 326 0.0 0.0 0.00 0.00 0.00 98 1020.5
20240721120731 69 172 0.0 0.0 0.00 0.00 0.00 98 1020.2
20240721120228 69 147 0.0 0.0 0.00 0.00 0.00 98 1020.4
20240721115727 68 144 0.0 0.0 0.00 0.00 0.00 99 1020.4
20240721115224 68 165 0.0 0.0 0.00 0.00 0.00 98 1020.3
20240721114724 68 167 0.0 0.0 0.00 0.00 0.00 98 1020.3
20240721114224 67 167 0.0 0.0 0.00 0.00 0.00 99 1020.5
20240721113723 67 167 0.0 0.0 0.00 0.00 0.00 98 1020.5
20240721113222 67 165 0.0 0.0 0.00 0.00 0.00 99 1020.3
20240721112721 67 166 0.0 0.0 0.00 0.00 0.00 98 1020.4
20240721112220 67 162 0.0 0.0 0.00 0.00 0.00 98 1020.3
20240721111718 67 168 0.0 0.0 0.00 0.00 0.00 98 1020.3
20240721111217 66 166 0.0 0.0 0.00 0.00 0.00 98 1020.2
20240721110715 67 166 0.0 0.0 0.00 0.00 0.00 98 1020.1
20240721110210 67 165 0.0 0.0 0.00 0.00 0.00 98 1020.0
20240721105708 66 167 0.0 0.0 0.00 0.00 0.00 98 1020.0
20240721105207 67 167 0.0 0.0 0.00 0.00 0.00 98 1020.1
20240721104707 67 168 0.0 0.0 0.00 0.00 0.00 98 1019.9
20240721104205 66 163 0.0 0.0 0.00 0.00 0.00 98 1020.1
20240721103704 67 162 0.0 0.0 0.00 0.00 0.00 98 1020.1
20240721103201 67 156 0.0 0.0 0.00 0.00 0.00 98 1020.0
20240721102659 66 168 0.0 0.0 0.00 0.00 0.00 98 1020.1
20240721102159 66 169 0.0 0.0 0.00 0.00 0.00 98 1020.5
20240721101658 67 169 0.0 0.0 0.00 0.00 0.00 98 1020.5
20240721101154 67 169 0.0 0.0 0.00 0.00 0.00 98 1020.3
20240721100652 67 169 0.0 0.0 0.00 0.00 0.00 98 1020.2
20240721100150 67 169 0.0 0.0 0.00 0.00 0.00 98 1020.3
20240721095650 67 173 0.0 0.0 0.00 0.00 0.00 98 1020.3
20240721095148 67 148 0.0 0.0 0.00 0.00 0.00 98 1020.2
20240721094647 67 160 0.0 0.0 0.00 0.00 0.00 98 1020.4
20240721094146 67 173 0.0 0.0 0.00 0.00 0.00 98 1020.3
20240721093645 67 173 0.0 0.0 0.00 0.00 0.00 98 1020.5
20240721093144 67 173 0.0 0.0 0.00 0.00 0.00 97 1020.3
20240721092644 67 176 0.0 0.0 0.00 0.00 0.00 97 1020.4
20240721092142 67 177 0.0 0.0 0.00 0.00 0.00 97 1020.1
20240721091641 67 185 0.0 0.0 0.00 0.00 0.00 97 1020.1
20240721091137 67 185 0.0 0.0 0.00 0.00 0.00 97 1020.3
20240721090637 68 185 0.0 0.0 0.00 0.00 0.00 97 1020.3
20240721090137 68 193 0.0 0.0 0.00 0.00 0.00 97 1020.4
20240721085634 67 162 0.0 0.0 0.00 0.00 0.00 97 1020.2
20240721085133 68 161 0.0 0.0 0.00 0.00 0.00 97 1020.4
20240721084633 68 168 0.0 0.0 0.00 0.00 0.00 96 1020.3
20240721084132 68 169 0.0 0.0 0.00 0.00 0.00 96 1020.6
20240721083631 68 166 0.0 0.0 0.00 0.00 0.00 96 1020.6
20240721083130 68 156 0.0 0.0 0.00 0.00 0.00 96 1020.4
20240721082623 68 161 0.0 0.0 0.00 0.00 0.00 96 1020.6
20240721082121 68 162 0.0 0.0 0.00 0.00 0.00 95 1020.3
20240721081619 68 166 0.0 0.0 0.00 0.00 0.00 95 1020.6
20240721081118 68 166 0.0 0.0 0.00 0.00 0.00 95 1020.6
20240721080616 69 166 0.0 0.0 0.00 0.00 0.00 95 1020.5
20240721080113 69 162 0.0 0.0 0.00 0.00 0.00 95 1020.5
20240721075612 69 174 0.0 0.0 0.00 0.00 0.00 95 1020.5
20240721075112 69 174 0.0 0.0 0.00 0.00 0.00 95 1020.4
20240721074610 69 169 0.0 0.0 0.00 0.00 0.00 94 1020.5
20240721074108 69 166 0.0 0.0 0.00 0.00 0.00 94 1020.6
20240721073607 69 153 0.0 0.0 0.00 0.00 0.00 94 1020.6
20240721073106 69 142 0.0 0.0 0.00 0.00 0.00 93 1020.4
20240721072605 69 179 0.0 0.0 0.00 0.00 0.00 93 1020.3
20240721072104 69 160 0.0 0.0 0.00 0.00 0.00 93 1020.5
20240721071603 70 153 0.0 0.0 0.00 0.00 0.00 93 1020.7
20240721071100 70 130 0.0 0.0 0.00 0.00 0.00 93 1020.5
20240721070557 70 172 0.0 0.0 0.00 0.00 0.00 92 1020.6
20240721070056 70 185 1.0 2.0 0.00 0.00 0.00 92 1020.6
20240721065553 70 175 0.0 0.0 0.00 0.00 0.00 91 1020.5
20240721065052 70 169 0.0 0.0 0.00 0.00 0.00 91 1020.4
20240721064552 71 180 0.0 0.0 0.00 0.00 0.00 91 1020.7
20240721064050 71 191 0.0 0.0 0.00 0.00 0.00 90 1020.4
20240721063548 71 170 0.0 0.0 0.00 0.00 0.00 90 1020.6
20240721063046 71 94 0.0 0.0 0.00 0.00 0.00 90 1020.5
20240721062543 71 259 0.0 0.0 0.00 0.00 0.00 90 1020.3
20240721062041 71 182 0.0 0.0 0.00 0.00 0.00 89 1020.3
20240721061539 71 163 0.0 0.0 0.00 0.00 0.00 89 1020.3
20240721061039 71 159 0.0 0.0 0.00 0.00 0.00 89 1020.2
20240721060539 71 263 0.0 0.0 0.00 0.00 0.00 89 1020.0
20240721060038 71 190 0.0 0.0 0.00 0.00 0.00 89 1020.2
20240721055532 72 180 0.0 0.0 0.00 0.00 0.00 88 1020.1
20240721055031 71 171 0.0 0.0 0.00 0.00 0.00 89 1020.2
20240721054530 71 162 0.0 0.0 0.00 0.00 0.00 88 1020.1
20240721054028 71 171 0.0 1.0 0.00 0.00 0.00 89 1020.0
20240721053528 71 174 0.0 0.0 0.00 0.00 0.00 89 1020.2
20240721053026 71 171 0.0 0.0 0.00 0.00 0.00 89 1020.2
20240721052524 71 174 0.0 0.0 0.00 0.00 0.00 89 1020.0
20240721052024 71 205 0.0 0.0 0.00 0.00 0.00 89 1020.1
20240721051521 71 156 0.0 0.0 0.00 0.00 0.00 89 1020.0
20240721051020 71 149 0.0 0.0 0.00 0.00 0.00 89 1020.0
20240721050518 71 181 0.0 0.0 0.00 0.00 0.00 89 1019.9
20240721050018 71 220 0.0 0.0 0.00 0.00 0.00 89 1019.9
20240721045515 71 170 0.0 0.0 0.00 0.00 0.00 89 1019.8
20240721045012 71 173 0.0 0.0 0.00 0.00 0.00 89 1019.7
20240721044459 71 179 0.0 0.0 0.00 0.00 0.00 89 1019.6
20240721043956 71 180 0.0 0.0 0.00 0.00 0.00 89 1019.6
20240721043455 71 179 0.0 0.0 0.00 0.00 0.00 89 1019.6
20240721042952 71 179 0.0 0.0 0.00 0.00 0.00 88 1019.7